Cromwell, Connecticut
Current Conditions -  °F | °C
As of 3:53 AM on Friday 24 Oct 2014 (Local Time) from KHFD Reporting Station
Overcast Overcast  
Wind Chill: 50°   Ceiling: 2500
Heat Index: 50°   Visibility: 10mi
Dew Point: 44°   Wind: 7mph
Humidity: 80%   Direction: 330°NNW
Pressure: 29.72"   Gusts: NA
Location:  41.59°N, 72.65°W
Report Text: KHFD 240753Z 33006KT 10SM BKN025 OVC032 10/07 A2972 RMK AO2 RAE03 SLP064 P0000 T01000067
Loading
Personal Weather Stations






























Interactive Weather Map
Tropical Storm Tracking
New forecast layout! Learn more

10-Day Weather Forecast

Advertisements
Track Severe Weather on mobile